Observation data for Post on 01/20/2019      Previous  Date  Next       Current Mesonet Observations  Soil Data  Daily Summary Page  Observations in Plain Language
KPT1 200600Z 08004KT 02/M05 A3032 RMK A01 T00181048  RH  062%=      5-min Rain = 0
KPT1 200605Z 08005KT 01/M05 A3032 RMK A01 T00131050  RH  064%=      5-min Rain = 0
KPT1 200610Z 08005KT 01/M05 A3031 RMK A01 T00071049  RH  067%=      5-min Rain = 0
KPT1 200615Z 09006KT 00/M05 A3031 RMK A01 T00041049  RH  069%=      5-min Rain = 0
KPT1 200620Z 09006KT 00/M05 A3031 RMK A01 T00041047  RH  069%=      5-min Rain = 0
KPT1 200625Z 08005KT 00/M05 A3032 RMK A01 T00031048  RH  070%=      5-min Rain = 0
KPT1 200630Z 08004KT 00/M05 A3033 RMK A01 T00011048  RH  070%=      5-min Rain = 0
KPT1 200635Z 10005KT 00/05 A3032 RMK A01 T00-00-50  RH  070%=      5-min Rain = 0
KPT1 200640Z 10006KT M00/M05 A3032 RMK A01 T10011050  RH  070%=      5-min Rain = 0
KPT1 200645Z 11005KT 00/M05 A3033 RMK A01 T00011051  RH  069%=      5-min Rain = 0
KPT1 200650Z 11005KT 00/M05 A3033 RMK A01 T00011052  RH  068%=      5-min Rain = 0
KPT1 200655Z 10005KT M00/M05 A3032 RMK A01 T10011053  RH  069%=      5-min Rain = 0
KPT1 200700Z 09005KT M00/M05 A3032 RMK A01 T10021053  RH  069%=      5-min Rain = 0
KPT1 200705Z 10005KT M00/M05 A3032 RMK A01 T10031054  RH  069%=      5-min Rain = 0
KPT1 200710Z 11005KT M00/M05 A3032 RMK A01 T10031054  RH  069%=      5-min Rain = 0
KPT1 200715Z 13004KT M01/M06 A3032 RMK A01 T10051056  RH  069%=      5-min Rain = 0
KPT1 200720Z 11005KT M01/M06 A3032 RMK A01 T10071056  RH  070%=      5-min Rain = 0
KPT1 200725Z 11005KT M01/M06 A3031 RMK A01 T10081057  RH  071%=      5-min Rain = 0
KPT1 200730Z 11005KT M01/M06 A3031 RMK A01 T10091056  RH  071%=      5-min Rain = 0
KPT1 200735Z 12004KT M01/M06 A3031 RMK A01 T10101057  RH  072%=      5-min Rain = 0
KPT1 200740Z 10003KT M01/M06 A3031 RMK A01 T10111056  RH  072%=      5-min Rain = 0
KPT1 200745Z 11003KT M01/M06 A3031 RMK A01 T10101056  RH  072%=      5-min Rain = 0
KPT1 200750Z 11003KT M01/M06 A3031 RMK A01 T10111057  RH  072%=      5-min Rain = 0
KPT1 200755Z 08002KT M01/M06 A3032 RMK A01 T10111056  RH  072%=      5-min Rain = 0
KPT1 200800Z 13001KT M01/M06 A3031 RMK A01 T10121057  RH  072%=      5-min Rain = 0
KPT1 200805Z 13002KT M01/M06 A3031 RMK A01 T10141058  RH  073%=      5-min Rain = 0
KPT1 200810Z 11001KT M01/M06 A3031 RMK A01 T10141057  RH  073%=      5-min Rain = 0
KPT1 200815Z 14000KT M01/M06 A3031 RMK A01 T10121056  RH  073%=      5-min Rain = 0
KPT1 200820Z 13001KT M01/M06 A3032 RMK A01 T10111056  RH  072%=      5-min Rain = 0
KPT1 200825Z 14002KT M01/M06 A3032 RMK A01 T10111058  RH  071%=      5-min Rain = 0
KPT1 200830Z 14003KT M01/M06 A3031 RMK A01 T10111060  RH  070%=      5-min Rain = 0
KPT1 200835Z 15004KT M01/M06 A3031 RMK A01 T10131063  RH  070%=      5-min Rain = 0
KPT1 200840Z 16003KT M02/M06 A303 RMK A01 T10151062  RH  071%=      5-min Rain = 0
KPT1 200845Z 14003KT M01/M06 A3031 RMK A01 T10131061  RH  071%=      5-min Rain = 0
KPT1 200850Z 14003KT M01/M06 A3031 RMK A01 T10131061  RH  070%=      5-min Rain = 0
KPT1 200855Z 15004KT M01/M06 A3031 RMK A01 T10141063  RH  070%=      5-min Rain = 0
KPT1 200900Z 15004KT M02/M06 A3031 RMK A01 T10151063  RH  071%=      5-min Rain = 0
KPT1 200905Z 15003KT M02/M06 A3031 RMK A01 T10151063  RH  071%=      5-min Rain = 0
KPT1 200910Z 14003KT M02/M06 A3031 RMK A01 T10151064  RH  070%=      5-min Rain = 0
KPT1 200915Z 15003KT M02/M06 A3031 RMK A01 T10151064  RH  070%=      5-min Rain = 0
KPT1 200920Z 15003KT M02/M06 A3031 RMK A01 T10151064  RH  070%=      5-min Rain = 0
KPT1 200925Z 16003KT M01/M06 A3032 RMK A01 T10141064  RH  070%=      5-min Rain = 0
KPT1 200930Z 17003KT M01/M06 A3032 RMK A01 T10141064  RH  069%=      5-min Rain = 0
KPT1 200935Z 18003KT M01/M06 A3032 RMK A01 T10141064  RH  070%=      5-min Rain = 0
KPT1 200940Z 17002KT M01/M06 A3031 RMK A01 T10131062  RH  070%=      5-min Rain = 0
KPT1 200945Z 17002KT M01/M06 A3031 RMK A01 T10111062  RH  069%=      5-min Rain = 0
KPT1 200950Z 14002KT M01/M06 A3031 RMK A01 T10101062  RH  069%=      5-min Rain = 0
KPT1 200955Z 14001KT M01/M07 A3031 RMK A01 T10111065  RH  068%=      5-min Rain = 0
KPT1 201000Z 14001KT M02/M07 A3031 RMK A01 T10161065  RH  070%=      5-min Rain = 0
KPT1 201005Z 13001KT M02/M06 A3031 RMK A01 T10171064  RH  071%=      5-min Rain = 0
KPT1 201010Z 12001KT M02/M06 A3031 RMK A01 T10181064  RH  072%=      5-min Rain = 0
KPT1 201015Z 13001KT M02/M06 A3031 RMK A01 T10171064  RH  071%=      5-min Rain = 0
KPT1 201020Z 12002KT M02/M06 A3031 RMK A01 T10151064  RH  070%=      5-min Rain = 0
KPT1 201025Z 12002KT M02/M07 A3031 RMK A01 T10151065  RH  069%=      5-min Rain = 0
KPT1 201030Z 12002KT M02/M06 A3031 RMK A01 T10161064  RH  071%=      5-min Rain = 0
KPT1 201035Z 14002KT M02/M06 A303 RMK A01 T10181064  RH  072%=      5-min Rain = 0
KPT1 201040Z 16002KT M02/M06 A303 RMK A01 T10191064  RH  072%=      5-min Rain = 0
KPT1 201045Z 15002KT M02/M07 A303 RMK A01 T10191065  RH  072%=      5-min Rain = 0
KPT1 201050Z 15002KT M02/M07 A303 RMK A01 T10181065  RH  071%=      5-min Rain = 0
KPT1 201055Z 14002KT M02/M07 A303 RMK A01 T10181065  RH  071%=      5-min Rain = 0
KPT1 201100Z 14001KT M02/M07 A303 RMK A01 T10191066  RH  071%=      5-min Rain = 0
KPT1 201105Z 11001KT M02/M07 A303 RMK A01 T10201066  RH  072%=      5-min Rain = 0
KPT1 201110Z 15001KT M02/M07 A3029 RMK A01 T10211067  RH  072%=      5-min Rain = 0
KPT1 201115Z 00000KT M02/M07 A3029 RMK A01 T10221067  RH  072%=      5-min Rain = 0
KPT1 201120Z 00000KT M02/M07 A3029 RMK A01 T10231067  RH  072%=      5-min Rain = 0
KPT1 201125Z 09000KT M02/M07 A3029 RMK A01 T10231067  RH  073%=      5-min Rain = 0
KPT1 201130Z 08001KT M02/M07 A3028 RMK A01 T10231066  RH  073%=      5-min Rain = 0
KPT1 201135Z 08000KT M02/M07 A3028 RMK A01 T10231066  RH  073%=      5-min Rain = 0
KPT1 201140Z 08000KT M02/M07 A3029 RMK A01 T10231066  RH  074%=      5-min Rain = 0
KPT1 201145Z 00000KT M03/M07 A3028 RMK A01 T10251066  RH  074%=      5-min Rain = 0
KPT1 201150Z 00000KT M03/M07 A3028 RMK A01 T10261065  RH  075%=      5-min Rain = 0
KPT1 201155Z 14000KT M03/M07 A3028 RMK A01 T10251065  RH  075%=      5-min Rain = 0
KPT1 201200Z 16001KT M03/M07 A3028 RMK A01 T10251066  RH  074%=      5-min Rain = 0
KPT1 201205Z 17001KT M03/M07 A3028 RMK A01 T10251066  RH  074%=      5-min Rain = 0
KPT1 201210Z 19002KT M03/M07 A3028 RMK A01 T10251066  RH  074%=      5-min Rain = 0
KPT1 201215Z 19001KT M03/M07 A3028 RMK A01 T10251065  RH  075%=      5-min Rain = 0
KPT1 201220Z 19000KT M02/M06 A3027 RMK A01 T10231064  RH  074%=      5-min Rain = 0
KPT1 201225Z 20002KT M02/M06 A3027 RMK A01 T10221064  RH  074%=      5-min Rain = 0
KPT1 201230Z 21002KT M02/M06 A3027 RMK A01 T10231064  RH  074%=      5-min Rain = 0
KPT1 201235Z 22002KT M02/M06 A3027 RMK A01 T10241064  RH  075%=      5-min Rain = 0
KPT1 201240Z 22002KT M03/M06 A3027 RMK A01 T10251063  RH  076%=      5-min Rain = 0
KPT1 201245Z 21002KT M02/M06 A3027 RMK A01 T10241063  RH  076%=      5-min Rain = 0
KPT1 201250Z 21002KT M02/M06 A3027 RMK A01 T10231063  RH  075%=      5-min Rain = 0
KPT1 201255Z 22002KT M02/M06 A3027 RMK A01 T10231063  RH  075%=      5-min Rain = 0
KPT1 201300Z 23002KT M02/M06 A3027 RMK A01 T10221063  RH  074%=      5-min Rain = 0
KPT1 201305Z 24002KT M02/M06 A3027 RMK A01 T10221063  RH  074%=      5-min Rain = 0
KPT1 201310Z 22000KT M03/M07 A3027 RMK A01 T10251065  RH  075%=      5-min Rain = 0
KPT1 201315Z 00000KT M03/M06 A3027 RMK A01 T10281064  RH  077%=      5-min Rain = 0
KPT1 201320Z 00000KT M03/M06 A3027 RMK A01 T10271063  RH  077%=      5-min Rain = 0
KPT1 201325Z 00000KT M03/M06 A3027 RMK A01 T10271064  RH  077%=      5-min Rain = 0
KPT1 201330Z 21000KT M03/M06 A3027 RMK A01 T10271064  RH  076%=      5-min Rain = 0
KPT1 201335Z 20000KT M03/M07 A3027 RMK A01 T10281065  RH  076%=      5-min Rain = 0
KPT1 201340Z 15001KT M03/M07 A3027 RMK A01 T10261065  RH  076%=      5-min Rain = 0
KPT1 201345Z 12001KT M03/M07 A3027 RMK A01 T10281065  RH  077%=      5-min Rain = 0
KPT1 201350Z 09001KT M03/M07 A3027 RMK A01 T10321065  RH  079%=      5-min Rain = 0
KPT1 201355Z 11001KT M03/M06 A3028 RMK A01 T10341064  RH  081%=      5-min Rain = 0
KPT1 201400Z 13000KT M03/M06 A3028 RMK A01 T10321061  RH  082%=      5-min Rain = 0
KPT1 201405Z 18001KT M03/M06 A3028 RMK A01 T10301061  RH  080%=      5-min Rain = 0
KPT1 201410Z 16002KT M03/M06 A3028 RMK A01 T10261063  RH  077%=      5-min Rain = 0
KPT1 201415Z 17002KT M02/M07 A3028 RMK A01 T10231065  RH  074%=      5-min Rain = 0
KPT1 201420Z 17003KT M02/M07 A3028 RMK A01 T10241066  RH  074%=      5-min Rain = 0
KPT1 201425Z 18005KT M02/M06 A3028 RMK A01 T10241064  RH  075%=      5-min Rain = 0
KPT1 201430Z 19007KT M02/M06 A3028 RMK A01 T10201061  RH  075%=      5-min Rain = 0
KPT1 201435Z 19006KT M02/M06 A3028 RMK A01 T10181060  RH  074%=      5-min Rain = 0
KPT1 201440Z 19007KT M02/M06 A3028 RMK A01 T10151059  RH  073%=      5-min Rain = 0
KPT1 201445Z 19007KT M01/M06 A3028 RMK A01 T10121056  RH  073%=      5-min Rain = 0
KPT1 201450Z 18006KT M01/M05 A3028 RMK A01 T10071052  RH  072%=      5-min Rain = 0
KPT1 201455Z 17007KT M00/M05 A3028 RMK A01 T10011049  RH  071%=      5-min Rain = 0
KPT1 201500Z 17006KT 01/M05 A3028 RMK A01 T00051047  RH  069%=      5-min Rain = 0
KPT1 201505Z 16006KT 01/M05 A3028 RMK A01 T00091046  RH  068%=      5-min Rain = 0
KPT1 201510Z 16006KT 01/M04 A3028 RMK A01 T00141043  RH  067%=      5-min Rain = 0
KPT1 201515Z 17006KT 02/M04 A3027 RMK A01 T00191042  RH  065%=      5-min Rain = 0
KPT1 201520Z 17007KT 02/M04 A3027 RMK A01 T00201043  RH  064%=      5-min Rain = 0
KPT1 201525Z 18008KT 02/M05 A3027 RMK A01 T00201045  RH  063%=      5-min Rain = 0
KPT1 201530Z 18008KT 02/M05 A3027 RMK A01 T00201045  RH  063%=      5-min Rain = 0
KPT1 201535Z 19010KT 02/M04 A3026 RMK A01 T00241042  RH  062%=      5-min Rain = 0
KPT1 201540Z 19011KT 03/M04 A3026 RMK A01 T00261043  RH  061%=      5-min Rain = 0
KPT1 201545Z 19011KT 03/M04 A3026 RMK A01 T00311042  RH  059%=      5-min Rain = 0
KPT1 201550Z 19010KT 03/M04 A3026 RMK A01 T00341041  RH  058%=      5-min Rain = 0
KPT1 201555Z 17010KT 04/M04 A3026 RMK A01 T00351043  RH  057%=      5-min Rain = 0
KPT1 201600Z 18010KT 04/M04 A3026 RMK A01 T00351043  RH  057%=      5-min Rain = 0
KPT1 201605Z 17011KT 04/M04 A3026 RMK A01 T00391043  RH  056%=      5-min Rain = 0
KPT1 201610Z 17012KT 04/M04 A3026 RMK A01 T00401043  RH  055%=      5-min Rain = 0
KPT1 201615Z 17011KT 04/M04 A3026 RMK A01 T00431042  RH  055%=      5-min Rain = 0
KPT1 201620Z 18011KT 05/M04 A3026 RMK A01 T00481041  RH  053%=      5-min Rain = 0
KPT1 201625Z 17009KT 05/M04 A3026 RMK A01 T00521039  RH  052%=      5-min Rain = 0
KPT1 201630Z 18010KT 05/M04 A3026 RMK A01 T00521040  RH  052%=      5-min Rain = 0
KPT1 201635Z 18010KT 06/M04 A3026 RMK A01 T00571038  RH  051%=      5-min Rain = 0
KPT1 201640Z 18010KT 06/M04 A3026 RMK A01 T00601037  RH  050%=      5-min Rain = 0
KPT1 201645Z 18010KT 06/M04 A3025 RMK A01 T00611038  RH  050%=      5-min Rain = 0
KPT1 201650Z 17009KT 07/M04 A3025 RMK A01 T00661035  RH  049%=      5-min Rain = 0
KPT1 201655Z 18010KT 07/M03 A3025 RMK A01 T00691034  RH  048%=      5-min Rain = 0
KPT1 201700Z 20011KT 07/M03 A3025 RMK A01 T00711034  RH  048%=      5-min Rain = 0
KPT1 201705Z 19010KT 07/M03 A3025 RMK A01 T00731034  RH  047%=      5-min Rain = 0
KPT1 201710Z 19009KT 08/M03 A3024 RMK A01 T00771033  RH  046%=      5-min Rain = 0
KPT1 201715Z 19010KT 08/M03 A3024 RMK A01 T00791032  RH  046%=      5-min Rain = 0
KPT1 201720Z 18009KT 08/M03 A3024 RMK A01 T00821031  RH  045%=      5-min Rain = 0
KPT1 201725Z 19008KT 09/M03 A3024 RMK A01 T00861030  RH  044%=      5-min Rain = 0
KPT1 201730Z 19009KT 09/M03 A3024 RMK A01 T00891029  RH  044%=      5-min Rain = 0
KPT1 201735Z 18008KT 09/M03 A3024 RMK A01 T00941029  RH  042%=      5-min Rain = 0
KPT1 201740Z 20008KT 10/M03 A3024 RMK A01 T00971029  RH  042%=      5-min Rain = 0
KPT1 201745Z 20009KT 10/M03 A3023 RMK A01 T01021029  RH  040%=      5-min Rain = 0
KPT1 201750Z 19009KT 11/M03 A3023 RMK A01 T01101029  RH  038%=      5-min Rain = 0
KPT1 201755Z 19009KT 11/M03 A3022 RMK A01 T01111030  RH  037%=      5-min Rain = 0
KPT1 201800Z 19009KT 12/M03 A3022 RMK A01 T01181030  RH  036%=      5-min Rain = 0
KPT1 201805Z 20009KT 12/M03 A3022 RMK A01 T01181032  RH  035%=      5-min Rain = 0
KPT1 201810Z 19008KT 12/M03 A3022 RMK A01 T01211031  RH  035%=      5-min Rain = 0
KPT1 201815Z 19008KT 13/M03 A3021 RMK A01 T01251033  RH  033%=      5-min Rain = 0
KPT1 201820Z 21010KT 13/M04 A3021 RMK A01 T01281036  RH  032%=      5-min Rain = 0
KPT1 201825Z 20009KT 13/M03 A302 RMK A01 T01321034  RH  032%=      5-min Rain = 0
KPT1 201830Z 19009KT 13/M04 A3019 RMK A01 T01301035  RH  032%=      5-min Rain = 0
KPT1 201835Z 19009KT 14/M03 A3019 RMK A01 T01361033  RH  031%=      5-min Rain = 0
KPT1 201840Z 19010KT 14/M04 A3018 RMK A01 T01361035  RH  031%=      5-min Rain = 0
KPT1 201845Z 19010KT 14/M04 A3018 RMK A01 T01351036  RH  031%=      5-min Rain = 0
KPT1 201850Z 19009KT 14/M03 A3018 RMK A01 T01401034  RH  030%=      5-min Rain = 0
KPT1 201855Z 19010G15KT 14/M04 A3018 RMK A01 T01411037  RH  029%=      5-min Rain = 0
KPT1 201900Z 19010G16KT 14/M04 A3017 RMK A01 T01401036  RH  030%=      5-min Rain = 0
KPT1 201905Z 20012KT 14/M05 A3017 RMK A01 T01411046  RH  027%=      5-min Rain = 0
KPT1 201910Z 21011G16KT 14/M05 A3016 RMK A01 T01431045  RH  027%=      5-min Rain = 0
KPT1 201915Z 19013KT 14/M04 A3016 RMK A01 T01411044  RH  028%=      5-min Rain = 0
KPT1 201920Z 20010KT 15/M04 A3016 RMK A01 T01491042  RH  027%=      5-min Rain = 0
KPT1 201925Z 20010KT 14/M05 A3015 RMK A01 T01441045  RH  027%=      5-min Rain = 0
KPT1 201930Z 22010KT 15/M05 A3015 RMK A01 T01461046  RH  027%=      5-min Rain = 0
KPT1 201935Z 22009KT 15/M04 A3015 RMK A01 T01471044  RH  027%=      5-min Rain = 0
KPT1 201940Z 22012G17KT 15/M05 A3014 RMK A01 T01501049  RH  025%=      5-min Rain = 0
KPT1 201945Z 21013KT 15/M05 A3014 RMK A01 T01471050  RH  025%=      5-min Rain = 0
KPT1 201950Z 21012KT 15/M05 A3013 RMK A01 T01511047  RH  025%=      5-min Rain = 0
KPT1 201955Z 22012KT 15/M05 A3013 RMK A01 T01511047  RH  025%=      5-min Rain = 0
KPT1 202000Z 22010G16KT 15/M05 A3013 RMK A01 T01501045  RH  026%=      5-min Rain = 0
KPT1 202005Z 22012KT 15/M05 A3013 RMK A01 T01511046  RH  026%=      5-min Rain = 0
KPT1 202010Z 21012KT 15/M04 A3012 RMK A01 T01511042  RH  026%=      5-min Rain = 0
KPT1 202015Z 21012KT 16/M04 A3012 RMK A01 T01561042  RH  026%=      5-min Rain = 0
KPT1 202020Z 21010KT 15/M04 A3012 RMK A01 T01531042  RH  026%=      5-min Rain = 0
KPT1 202025Z 21011G18KT 15/M04 A3011 RMK A01 T01531044  RH  026%=      5-min Rain = 0
KPT1 202030Z 21010KT 15/M04 A3011 RMK A01 T01531043  RH  026%=      5-min Rain = 0
KPT1 202035Z 21011KT 16/M04 A3011 RMK A01 T01571043  RH  025%=      5-min Rain = 0
KPT1 202040Z 19011G16KT 16/M04 A3011 RMK A01 T01561042  RH  026%=      5-min Rain = 0
KPT1 202045Z 20010G15KT 17/M04 A3011 RMK A01 T01661039  RH  025%=      5-min Rain = 0
KPT1 202050Z 20011KT 17/M04 A301 RMK A01 T01681039  RH  024%=      5-min Rain = 0
KPT1 202055Z 20011KT 17/M04 A301 RMK A01 T01721039  RH  024%=      5-min Rain = 0
KPT1 202100Z 20011G16KT 17/M04 A301 RMK A01 T01731039  RH  023%=      5-min Rain = 0
KPT1 202105Z 20010G16KT 17/M04 A301 RMK A01 T01711041  RH  023%=      5-min Rain = 0
KPT1 202110Z 20010KT 17/M04 A3009 RMK A01 T01681043  RH  024%=      5-min Rain = 0
KPT1 202115Z 20011G17KT 17/M04 A3009 RMK A01 T01711043  RH  023%=      5-min Rain = 0
KPT1 202120Z 20010G15KT 18/M04 A3009 RMK A01 T01751043  RH  023%=      5-min Rain = 0
KPT1 202125Z 20010KT 18/M04 A3009 RMK A01 T01751041  RH  023%=      5-min Rain = 0
KPT1 202130Z 20011G16KT 18/M04 A3008 RMK A01 T01791040  RH  022%=      5-min Rain = 0
KPT1 202135Z 20009G14KT 18/M04 A3008 RMK A01 T01801039  RH  022%=      5-min Rain = 0
KPT1 202140Z 19011KT 18/M04 A3008 RMK A01 T01781040  RH  023%=      5-min Rain = 0
KPT1 202145Z 22010G15KT 18/M04 A3008 RMK A01 T01801041  RH  022%=      5-min Rain = 0
KPT1 202150Z 20010G15KT 18/M04 A3008 RMK A01 T01791041  RH  022%=      5-min Rain = 0
KPT1 202155Z 21009KT 18/M04 A3008 RMK A01 T01801043  RH  022%=      5-min Rain = 0
KPT1 202200Z 18010G15KT 18/M04 A3008 RMK A01 T01821042  RH  022%=      5-min Rain = 0
KPT1 202205Z 19010KT 18/M04 A3008 RMK A01 T01791042  RH  022%=      5-min Rain = 0
KPT1 202210Z 18009KT 18/M04 A3007 RMK A01 T01801041  RH  022%=      5-min Rain = 0
KPT1 202215Z 19010KT 18/M04 A3007 RMK A01 T01801042  RH  022%=      5-min Rain = 0
KPT1 202220Z 19011KT 18/M04 A3007 RMK A01 T01801044  RH  022%=      5-min Rain = 0
KPT1 202225Z 19010G15KT 18/M05 A3007 RMK A01 T01811045  RH  021%=      5-min Rain = 0
KPT1 202230Z 18009KT 18/M05 A3007 RMK A01 T01821045  RH  021%=      5-min Rain = 0
KPT1 202235Z 18011G16KT 18/M05 A3007 RMK A01 T01811049  RH  021%=      5-min Rain = 0
KPT1 202240Z 19010KT 18/M05 A3007 RMK A01 T01811051  RH  020%=      5-min Rain = 0
KPT1 202245Z 19009KT 18/M05 A3006 RMK A01 T01821053  RH  020%=      5-min Rain = 0
KPT1 202250Z 20008G13KT 18/M06 A3006 RMK A01 T01811056  RH  020%=      5-min Rain = 0
KPT1 202255Z 19009KT 18/M06 A3006 RMK A01 T01831058  RH  019%=      5-min Rain = 0
KPT1 202300Z 19009KT 18/M06 A3006 RMK A01 T01831058  RH  019%=      5-min Rain = 0
KPT1 202305Z 19010KT 18/M06 A3006 RMK A01 T01811059  RH  019%=      5-min Rain = 0
KPT1 202310Z 19011G16KT 18/M06 A3006 RMK A01 T01791061  RH  019%=      5-min Rain = 0
KPT1 202315Z 19010G15KT 18/M06 A3006 RMK A01 T01771062  RH  019%=      5-min Rain = 0
KPT1 202320Z 19011G16KT 18/M06 A3006 RMK A01 T01751063  RH  019%=      5-min Rain = 0
KPT1 202325Z 19008KT 17/M06 A3007 RMK A01 T01701061  RH  020%=      5-min Rain = 0
KPT1 202330Z 19007KT 17/M05 A3007 RMK A01 T01651054  RH  022%=      5-min Rain = 0
KPT1 202335Z 19007KT 16/M05 A3006 RMK A01 T01621053  RH  023%=      5-min Rain = 0
KPT1 202340Z 19008KT 16/M05 A3007 RMK A01 T01601053  RH  023%=      5-min Rain = 0
KPT1 202345Z 19007KT 16/M05 A3006 RMK A01 T01561052  RH  024%=      5-min Rain = 0
KPT1 202350Z 18007KT 15/M05 A3006 RMK A01 T01531051  RH  024%=      5-min Rain = 0
KPT1 202355Z 18008KT 15/M05 A3006 RMK A01 T01491048  RH  026%=      5-min Rain = 0
KPT1 210000Z 17006KT 14/M05 A3006 RMK A01 T01441047  RH  027%=      5-min Rain = 0
KPT1 210005Z 17007KT 14/M05 A3006 RMK A01 T01391046  RH  028%=      5-min Rain = 0
KPT1 210010Z 17007KT 14/M05 A3006 RMK A01 T01361045  RH  029%=      5-min Rain = 0
KPT1 210015Z 18007KT 13/M04 A3005 RMK A01 T01341044  RH  029%=      5-min Rain = 0
KPT1 210020Z 17007KT 13/M04 A3005 RMK A01 T01321043  RH  030%=      5-min Rain = 0
KPT1 210025Z 17007KT 13/M04 A3005 RMK A01 T01281043  RH  030%=      5-min Rain = 0
KPT1 210030Z 17007KT 13/M04 A3005 RMK A01 T01261043  RH  031%=      5-min Rain = 0
KPT1 210035Z 18007KT 13/M04 A3005 RMK A01 T01251042  RH  031%=      5-min Rain = 0
KPT1 210040Z 17006KT 12/M04 A3005 RMK A01 T01221042  RH  032%=      5-min Rain = 0
KPT1 210045Z 17006KT 12/M04 A3005 RMK A01 T01191042  RH  033%=      5-min Rain = 0
KPT1 210050Z 18006KT 12/M04 A3006 RMK A01 T01181041  RH  033%=      5-min Rain = 0
KPT1 210055Z 18007KT 12/M04 A3005 RMK A01 T01191041  RH  033%=      5-min Rain = 0
KPT1 210100Z 18007KT 12/M04 A3005 RMK A01 T01171041  RH  033%=      5-min Rain = 0
KPT1 210105Z 19007KT 12/M04 A3005 RMK A01 T01171041  RH  033%=      5-min Rain = 0
KPT1 210110Z 19007KT 12/M04 A3006 RMK A01 T01171041  RH  033%=      5-min Rain = 0
KPT1 210115Z 18007KT 12/M04 A3005 RMK A01 T01171041  RH  033%=      5-min Rain = 0
KPT1 210120Z 18007KT 12/M04 A3005 RMK A01 T01151041  RH  034%=      5-min Rain = 0
KPT1 210125Z 19007KT 12/M04 A3005 RMK A01 T01151042  RH  034%=      5-min Rain = 0
KPT1 210130Z 18007KT 11/M04 A3005 RMK A01 T01131042  RH  034%=      5-min Rain = 0
KPT1 210135Z 18007KT 11/M04 A3005 RMK A01 T01101042  RH  035%=      5-min Rain = 0
KPT1 210140Z 18008KT 11/M04 A3005 RMK A01 T01081042  RH  035%=      5-min Rain = 0
KPT1 210145Z 19007KT 11/M04 A3005 RMK A01 T01091041  RH  035%=      5-min Rain = 0
KPT1 210150Z 19008KT 11/M04 A3005 RMK A01 T01121040  RH  034%=      5-min Rain = 0
KPT1 210155Z 20008KT 12/M04 A3005 RMK A01 T01161040  RH  034%=      5-min Rain = 0
KPT1 210200Z 20007KT 12/M04 A3005 RMK A01 T01151041  RH  034%=      5-min Rain = 0
KPT1 210205Z 20007KT 11/M04 A3004 RMK A01 T01121041  RH  034%=      5-min Rain = 0
KPT1 210210Z 20008KT 11/M04 A3004 RMK A01 T01121041  RH  034%=      5-min Rain = 0
KPT1 210215Z 20009KT 11/M04 A3004 RMK A01 T01141041  RH  034%=      5-min Rain = 0
KPT1 210220Z 20009KT 12/M04 A3004 RMK A01 T01161042  RH  033%=      5-min Rain = 0
KPT1 210225Z 20009KT 12/M04 A3004 RMK A01 T01151041  RH  034%=      5-min Rain = 0
KPT1 210230Z 20010G15KT 12/M04 A3003 RMK A01 T01161041  RH  033%=      5-min Rain = 0
KPT1 210235Z 20010KT 12/M04 A3003 RMK A01 T01181042  RH  033%=      5-min Rain = 0
KPT1 210240Z 20010G16KT 12/M04 A3003 RMK A01 T01191042  RH  033%=      5-min Rain = 0
KPT1 210245Z 20011G16KT 12/M04 A3003 RMK A01 T01201042  RH  032%=      5-min Rain = 0
KPT1 210250Z 20011KT 12/M04 A3003 RMK A01 T01171042  RH  033%=      5-min Rain = 0
KPT1 210255Z 20010KT 12/M04 A3002 RMK A01 T01161041  RH  033%=      5-min Rain = 0
KPT1 210300Z 20010KT 12/M04 A3002 RMK A01 T01151041  RH  034%=      5-min Rain = 0
KPT1 210305Z 20009KT 11/M04 A3002 RMK A01 T01131041  RH  034%=      5-min Rain = 0
KPT1 210310Z 20010G15KT 11/M04 A3002 RMK A01 T01141041  RH  034%=      5-min Rain = 0
KPT1 210315Z 20011KT 12/M04 A3002 RMK A01 T01151040  RH  034%=      5-min Rain = 0
KPT1 210320Z 20011G17KT 12/M04 A3002 RMK A01 T01161039  RH  034%=      5-min Rain = 0
KPT1 210325Z 20011KT 12/M04 A3002 RMK A01 T01151038  RH  035%=      5-min Rain = 0
KPT1 210330Z 20011KT 11/M04 A3002 RMK A01 T01131037  RH  035%=      5-min Rain = 0
KPT1 210335Z 20011KT 11/M04 A3002 RMK A01 T01131036  RH  035%=      5-min Rain = 0
KPT1 210340Z 20011G17KT 11/M03 A3001 RMK A01 T01141034  RH  036%=      5-min Rain = 0
KPT1 210345Z 20011G18KT 12/M03 A3001 RMK A01 T01151033  RH  036%=      5-min Rain = 0
KPT1 210350Z 20011KT 12/M03 A3001 RMK A01 T01151032  RH  036%=      5-min Rain = 0
KPT1 210355Z 19010G15KT 12/M03 A3001 RMK A01 T01151032  RH  036%=      5-min Rain = 0
KPT1 210400Z 19010KT 11/M03 A30 RMK A01 T01131031  RH  037%=      5-min Rain = 0
KPT1 210405Z 19008KT 11/M03 A30 RMK A01 T01101031  RH  037%=      5-min Rain = 0
KPT1 210410Z 19009KT 11/M03 A30 RMK A01 T01091030  RH  038%=      5-min Rain = 0
KPT1 210415Z 19009KT 11/M03 A30 RMK A01 T01071030  RH  038%=      5-min Rain = 0
KPT1 210420Z 19009KT 11/M03 A30 RMK A01 T01061030  RH  039%=      5-min Rain = 0
KPT1 210425Z 19009KT 10/M03 A30 RMK A01 T01041030  RH  039%=      5-min Rain = 0
KPT1 210430Z 20009G14KT 10/M03 A30 RMK A01 T01031030  RH  040%=      5-min Rain = 0
KPT1 210435Z 19010KT 10/M03 A30 RMK A01 T01001030  RH  040%=      5-min Rain = 0
KPT1 210440Z 19009KT 10/M03 A30 RMK A01 T00971030  RH  041%=      5-min Rain = 0
KPT1 210445Z 19010KT 10/M03 A30 RMK A01 T00951030  RH  042%=      5-min Rain = 0
KPT1 210450Z 20010KT 10/M03 A30 RMK A01 T00951029  RH  042%=      5-min Rain = 0
KPT1 210455Z 20011KT 10/M03 A30 RMK A01 T00951029  RH  042%=      5-min Rain = 0
KPT1 210500Z 20011KT 10/M03 A30 RMK A01 T00961028  RH  042%=      5-min Rain = 0
KPT1 210505Z 20011KT 10/M03 A3001 RMK A01 T00961028  RH  042%=      5-min Rain = 0
KPT1 210510Z 20011G16KT 10/M03 A3001 RMK A01 T00961027  RH  042%=      5-min Rain = 0
KPT1 210515Z 21011G16KT 10/M03 A3001 RMK A01 T00971026  RH  042%=      5-min Rain = 0
KPT1 210520Z 21011KT 10/M03 A3001 RMK A01 T00971026  RH  042%=      5-min Rain = 0
KPT1 210525Z 21012G20KT 10/M03 A3001 RMK A01 T00981025  RH  042%=      5-min Rain = 0
KPT1 210530Z 20012G20KT 10/M03 A3001 RMK A01 T00991025  RH  042%=      5-min Rain = 0
KPT1 210535Z 20012G18KT 10/M02 A3001 RMK A01 T00991024  RH  043%=      5-min Rain = 0
KPT1 210540Z 20011KT 10/M02 A3001 RMK A01 T00971024  RH  043%=      5-min Rain = 0
KPT1 210545Z 20011G16KT 10/M02 A3001 RMK A01 T00971023  RH  043%=      5-min Rain = 0
KPT1 210550Z 20011G17KT 10/M02 A30 RMK A01 T00951023  RH  044%=      5-min Rain = 0
KPT1 210555Z 20012G19KT 10/M02 A30 RMK A01 T00961022  RH  044%=      5-min Rain = 0

Page generated in 0.0153 seconds.